Paramount Hydra — 2CWC3 — position and weather

sailwx.info

Track history (hours):
 
Tides and Currents Weather Stations Pressure Air Temp Water Temp Dewpoint Dewpoint Depression Visibility Wind Speed Wind Dir Waves Ship Positions

Paramount Hydra

Last reported at 2018-Feb-23 04:50 UTC. Time now 2018-Feb-24 04:01 UTC.
Position N 33°08' W 120°20'.

Length 250 m; draft 8.6 m.

Type: Tanker. MMSI: 235076283.

Date/timePositionNaut miles runAvg speedWind from/ knotsBaromVisibWave heightAir tempDewpointWater temp
2018-Feb-23 04:50N 33°08' W 120°20'411.5
2018-Feb-23 04:29N 33°12' W 120°23'711.5
2018-Feb-23 03:53N 33°17' W 120°27'411.7
2018-Feb-23 03:30N 33°21' W 120°30'611.5
2018-Feb-23 03:00N 33°26' W 120°33'611.5
2018-Feb-23 02:29N 33°31' W 120°37'611.5
2018-Feb-23 02:00N 33°36' W 120°40'611.5
2018-Feb-23 01:30N 33°42' W 120°43'611.5
2018-Feb-23 01:00N 33°47' W 120°46'611.3
2018-Feb-23 00:30N 33°52' W 120°49'611.5
2018-Feb-23 00:00N 33°57' W 120°52'611.6
2018-Feb-22 23:30N 34°02' W 120°56'612.0
2018-Feb-22 23:00N 34°07' W 120°59'611.7
2018-Feb-22 22:30N 34°12' W 121°02'611.6
2018-Feb-22 22:00N 34°18' W 121°05'611.5
2018-Feb-22 21:29N 34°23' W 121°09'511.5
2018-Feb-22 21:00N 34°28' W 121°12'611.7
2018-Feb-22 20:30N 34°33' W 121°15'611.5
2018-Feb-22 20:00N 34°38' W 121°17'611.3
2018-Feb-22 19:30N 34°43' W 121°21'1111.1
2018-Feb-22 18:30N 34°53' W 121°27'611.3
2018-Feb-22 17:59N 34°58' W 121°30'611.4
2018-Feb-22 17:29N 35°03' W 121°33'12811.4
2018-Feb-22 06:12N 37°00' W 122°39'311.5
2018-Feb-22 05:57N 37°03' W 122°40'711.2
2018-Feb-22 05:19N 37°09' W 122°43'411.3
2018-Feb-22 05:00N 37°13' W 122°44'611.7
2018-Feb-22 04:30N 37°19' W 122°44'611.7
2018-Feb-22 03:59N 37°25' W 122°44'611.7
2018-Feb-22 03:30N 37°31' W 122°44'611.8
2018-Feb-22 03:00N 37°36' W 122°44'612.5
2018-Feb-22 02:30N 37°43' W 122°42'611.1
2018-Feb-22 02:00N 37°46' W 122°37'713.6
2018-Feb-22 01:30N 37°49' W 122°29'5 9.3
2018-Feb-22 01:00N 37°53' W 122°26'611.6
2018-Feb-22 00:30N 37°59' W 122°26'611.4
2018-Feb-22 00:00N 38°03' W 122°21'5 9.2
2018-Feb-21 23:30N 38°04' W 122°15'5 8.1
2018-Feb-21 22:53N 38°02' W 122°09'1 0.0
2018-Feb-20 21:49N 38°02' W 122°08'1 3.7
2018-Feb-20 21:27N 38°02' W 122°10'4 8.7
2018-Feb-20 20:59N 38°04' W 122°14'4 9.4
2018-Feb-20 20:30N 38°03' W 122°20'5 9.6
2018-Feb-20 20:00N 38°00' W 122°25'5 9.8
2018-Feb-20 19:30N 37°56' W 122°27'5 9.5
2018-Feb-20 19:01N 37°51' W 122°25'4 8.7
2018-Feb-20 18:30N 37°49' W 122°29'510.2
2018-Feb-20 18:01N 37°47' W 122°35'510.8
2018-Feb-20 17:30N 37°44' W 122°41'3 6.8
2018-Feb-20 17:00N 37°41' W 122°40'3 5.9
2018-Feb-20 16:31N 37°38' W 122°40'3 5.8
2018-Feb-20 16:01N 37°35' W 122°40'3 5.8
2018-Feb-20 15:31N 37°32' W 122°40'3 5.9
2018-Feb-20 15:00N 37°29' W 122°40'4 7.2
2018-Feb-20 14:31N 37°26' W 122°40'4 7.0
2018-Feb-20 14:00N 37°22' W 122°40'3 6.2
2018-Feb-20 13:30N 37°19' W 122°40'2 4.9
2018-Feb-20 13:01N 37°17' W 122°40'3 5.3
2018-Feb-20 12:31N 37°14' W 122°40'3 6.5
2018-Feb-20 12:00N 37°11' W 122°41'2 4.5
2018-Feb-20 11:30N 37°09' W 122°40'5 9.5
2018-Feb-20 10:58N 37°04' W 122°38'4 9.3
2018-Feb-20 10:30N 36°60' W 122°36'110 7.8
2018-Feb-19 20:27N 35°19' W 121°39'4 8.8
2018-Feb-19 20:00N 35°16' W 121°37'5 9.0
2018-Feb-19 19:28N 35°12' W 121°34'4 8.4
2018-Feb-19 19:01N 35°09' W 121°32'4 9.0
2018-Feb-19 18:31N 35°05' W 121°29'4 8.9
2018-Feb-19 18:01N 35°01' W 121°26'5 9.3
2018-Feb-19 17:31N 34°57' W 121°23'5 9.1
2018-Feb-19 17:00N 34°53' W 121°21'5 9.1
2018-Feb-19 16:30N 34°49' W 121°18'5 9.5
2018-Feb-19 16:01N 34°45' W 121°15'5 9.6
2018-Feb-19 15:31N 34°41' W 121°12'5 9.7
2018-Feb-19 15:01N 34°36' W 121°09'5 9.4
2018-Feb-19 14:30N 34°32' W 121°06'4 8.9
2018-Feb-19 14:00N 34°28' W 121°04'5 9.2
2018-Feb-19 13:30N 34°24' W 121°01'5 9.3
2018-Feb-19 13:00N 34°20' W 120°58'5 9.9
2018-Feb-19 12:30N 34°16' W 120°55'5 9.4
2018-Feb-19 12:01N 34°12' W 120°52'5 9.5
2018-Feb-19 11:30N 34°08' W 120°50'5 9.6
2018-Feb-19 11:01N 34°04' W 120°47'5 9.5
2018-Feb-19 10:30N 33°60' W 120°44'5 9.6
2018-Feb-19 10:01N 33°56' W 120°40'5 9.5
2018-Feb-19 09:30N 33°54' W 120°35'5 9.4
2018-Feb-19 09:00N 33°52' W 120°30'5 9.5
2018-Feb-19 08:30N 33°49' W 120°25'6 9.9
2018-Feb-19 07:54N 33°47' W 120°18'410.0
2018-Feb-19 07:28N 33°45' W 120°14'510.1
2018-Feb-19 07:00N 33°42' W 120°09'611.2
2018-Feb-19 06:30N 33°41' W 120°02'611.4
2018-Feb-19 06:01N 33°41' W 119°55'610.9
2018-Feb-19 05:30N 33°40' W 119°49'511.0
2018-Feb-19 05:00N 33°39' W 119°42'510.7
2018-Feb-19 04:30N 33°39' W 119°36'510.8
2018-Feb-19 04:00N 33°38' W 119°30'510.9
2018-Feb-19 03:31N 33°38' W 119°23'510.9
2018-Feb-19 03:01N 33°37' W 119°17'611.4
2018-Feb-19 02:30N 33°37' W 119°10'611.3
2018-Feb-19 02:00N 33°36' W 119°03'511.0
2018-Feb-19 01:31N 33°35' W 118°56'611.1
2018-Feb-19 00:59N 33°35' W 118°50'511.4
2018-Feb-19 00:31N 33°34' W 118°43'611.4
2018-Feb-18 23:59N 33°33' W 118°36'511.3
2018-Feb-18 23:31N 33°33' W 118°29'611.3
2018-Feb-18 22:59N 33°32' W 118°22'510.9
2018-Feb-18 22:30N 33°33' W 118°16'511.1
2018-Feb-18 22:01N 33°38' W 118°13'5 9.6
2018-Feb-18 21:30N 33°43' W 118°11'3 5.2
2018-Feb-18 21:01N 33°45' W 118°13'2 3.1
2018-Feb-18 20:31N 33°46' W 118°13'0 0.0
2018-Feb-18 20:01N 33°46' W 118°13'0 0.0
2018-Feb-18 16:54N 33°46' W 118°13'0 0.0
2018-Feb-18 16:30N 33°46' W 118°13'0 0.0
2018-Feb-18 15:57N 33°46' W 118°13'0 0.0
2018-Feb-18 15:27N 33°46' W 118°13'0 0.0
2018-Feb-18 14:57N 33°46' W 118°13'0 0.0
2018-Feb-18 01:51N 33°46' W 118°13'0 0.0
2018-Feb-18 01:24N 33°46' W 118°13'0 0.0
2018-Feb-18 01:00N 33°46' W 118°13'0 0.0
2018-Feb-18 00:30N 33°46' W 118°13'0 0.0
2018-Feb-18 00:00N 33°46' W 118°13'0 0.0
2018-Feb-17 23:30N 33°46' W 118°13'0 0.0
2018-Feb-17 22:57N 33°46' W 118°13'0 0.0
2018-Feb-17 22:30N 33°46' W 118°13'0 0.0
2018-Feb-17 21:51N 33°46' W 118°13'0 0.0
2018-Feb-17 21:27N 33°46' W 118°13'0 0.0
2018-Feb-17 21:00N 33°46' W 118°13'0 0.0
2018-Feb-17 20:06N 33°46' W 118°13'0 0.0
2018-Feb-17 20:00N 33°46' W 118°13'0 0.0
2018-Feb-17 19:30N 33°46' W 118°13'0 0.0
2018-Feb-17 19:00N 33°46' W 118°13'0 0.0
2018-Feb-17 18:27N 33°46' W 118°13'0 0.0
2018-Feb-17 17:57N 33°46' W 118°13'0 0.0
2018-Feb-17 17:30N 33°46' W 118°13'0 0.0
2018-Feb-17 17:00N 33°46' W 118°13'0 0.0
2018-Feb-17 16:30N 33°46' W 118°13'0 0.0
2018-Feb-17 15:57N 33°46' W 118°13'0 0.0
2018-Feb-17 15:30N 33°46' W 118°13'0 0.0
2018-Feb-17 14:39N 33°46' W 118°13'0 0.0
2018-Feb-17 05:00N 33°46' W 118°13'0 0.3
2018-Feb-17 04:30N 33°46' W 118°13'1 2.3
2018-Feb-17 04:00N 33°45' W 118°13'3 5.2
2018-Feb-17 03:30N 33°43' W 118°11'3 5.6
2018-Feb-17 02:59N 33°41' W 118°08'1 1.2
2018-Feb-17 02:30N 33°41' W 118°08'0 0.0
2018-Feb-17 02:00N 33°41' W 118°08'0 0.0
2018-Feb-17 01:30N 33°41' W 118°08'0 0.0
2018-Feb-17 01:00N 33°41' W 118°08'0 0.0
2018-Feb-17 00:30N 33°41' W 118°08'0 0.0
2018-Feb-16 23:57N 33°41' W 118°08'0 0.0
2018-Feb-16 23:12N 33°41' W 118°08'0 0.0
2018-Feb-16 21:30N 33°41' W 118°08'0 0.1
2018-Feb-16 21:00N 33°41' W 118°08'0 0.0
2018-Feb-16 20:30N 33°41' W 118°08'0 0.1
2018-Feb-16 19:54N 33°41' W 118°08'0 0.1
2018-Feb-16 19:24N 33°41' W 118°08'0 0.1
2018-Feb-16 18:51N 33°41' W 118°08'0 0.0
2018-Feb-16 18:24N 33°41' W 118°08'0 0.1
2018-Feb-16 18:00N 33°41' W 118°08'0 0.2
2018-Feb-16 17:30N 33°41' W 118°08'0 0.1
2018-Feb-16 16:57N 33°41' W 118°08'0 0.0
2018-Feb-16 16:24N 33°41' W 118°08'0 0.1
2018-Feb-16 16:00N 33°41' W 118°08'0 0.1
2018-Feb-16 15:27N 33°41' W 118°08'0 0.1
2018-Feb-16 14:57N 33°41' W 118°08'0 0.1
2018-Feb-16 13:36N 33°41' W 118°08'0 0.3
2018-Feb-16 13:14N 33°41' W 118°08'1 3.0
2018-Feb-16 12:51N 33°40' W 118°09'4 6.9
2018-Feb-16 12:16N 33°36' W 118°09'3 8.2
2018-Feb-16 11:57N 33°34' W 118°09'9 9.4
2018-Feb-16 10:57N 33°25' W 118°05'611.0
2018-Feb-16 10:27N 33°20' W 118°03'510.8
2018-Feb-16 10:00N 33°15' W 118°01'510.8
2018-Feb-16 09:30N 33°10' W 118°02'510.7
2018-Feb-16 09:00N 33°04' W 118°02'510.7
2018-Feb-16 08:30N 32°59' W 118°03'510.7
2018-Feb-16 08:00N 32°54' W 118°04'510.2
2018-Feb-16 07:30N 32°49' W 118°06'1010.4
2018-Feb-16 06:35N 32°41' W 118°12'710.6
2018-Feb-16 05:54N 32°37' W 118°19'410.8
2018-Feb-16 05:30N 32°35' W 118°24'610.7
2018-Feb-16 04:54N 32°30' W 118°29'610.6
2018-Feb-16 04:20N 32°25' W 118°33'310.3
2018-Feb-16 04:00N 32°22' W 118°35'510.1
2018-Feb-16 03:28N 32°18' W 118°38'102 2.4
2018-Feb-14 09:07N 33°09' W 120°23'112.7
2018-Feb-14 09:00N 33°10' W 120°24'612.7
2018-Feb-14 08:30N 33°16' W 120°27'612.6
2018-Feb-14 08:00N 33°21' W 120°31'612.5
2018-Feb-14 07:30N 33°27' W 120°34'612.3
2018-Feb-14 07:00N 33°32' W 120°38'612.3
2018-Feb-14 06:30N 33°38' W 120°41'612.4
2018-Feb-14 06:00N 33°43' W 120°44'612.6
2018-Feb-14 05:30N 33°49' W 120°47'612.8
2018-Feb-14 05:00N 33°55' W 120°51'612.8
2018-Feb-14 04:30N 34°00' W 120°54'612.5
2018-Feb-14 04:01N 34°06' W 120°58'612.5
2018-Feb-14 03:30N 34°12' W 121°01'612.3
2018-Feb-14 03:00N 34°17' W 121°05'612.0
2018-Feb-14 02:31N 34°22' W 121°08'612.4
2018-Feb-14 02:01N 34°28' W 121°11'612.3
2018-Feb-14 01:30N 34°33' W 121°15'612.2
2018-Feb-14 01:00N 34°39' W 121°18'612.1
2018-Feb-14 00:31N 34°44' W 121°21'912.1
2018-Feb-13 23:48N 34°52' W 121°26'412.0
2018-Feb-13 23:29N 34°55' W 121°28'612.0
2018-Feb-13 23:00N 35°00' W 121°32'1711.9
2018-Feb-13 21:35N 35°15' W 121°41'111.9
2018-Feb-13 21:30N 35°16' W 121°41'11411.6
2018-Feb-13 11:36N 37°01' W 122°39'111.5
2018-Feb-13 11:29N 37°02' W 122°40'611.6
2018-Feb-13 11:00N 37°07' W 122°42'611.6
2018-Feb-13 10:30N 37°13' W 122°44'611.9
2018-Feb-13 10:00N 37°19' W 122°44'611.7
2018-Feb-13 09:30N 37°25' W 122°44'611.9
2018-Feb-13 09:00N 37°31' W 122°44'611.5
2018-Feb-13 08:30N 37°36' W 122°44'611.5
2018-Feb-13 08:01N 37°42' W 122°44'5 9.1
2018-Feb-13 07:30N 37°46' W 122°41'611.6
2018-Feb-13 07:00N 37°47' W 122°34'612.2
2018-Feb-13 06:31N 37°50' W 122°27'4 7.9
2018-Feb-13 06:00N 37°54' W 122°27'510.7
2018-Feb-13 05:30N 37°60' W 122°25'510.0
2018-Feb-13 05:00N 38°03' W 122°20'  
Track history (hours):
 
Tides and Currents Weather Stations Pressure Air Temp Water Temp Dewpoint Dewpoint Depression Visibility Wind Speed Wind Dir Waves Ship Positions

Paramount Hydra

Last reported at 2018-Feb-23 04:50 UTC. Time now 2018-Feb-24 04:01 UTC.
Position N 33°08' W 120°20'.

Length 250 m; draft 8.6 m.

Type: Tanker. MMSI: 235076283.

Date/timePositionNaut miles runAvg speedWind from/ knotsBaromVisibWave heightAir tempDewpointWater temp
2018-Feb-23 04:50N 33°08' W 120°20'411.5
2018-Feb-23 04:29N 33°12' W 120°23'711.5
2018-Feb-23 03:53N 33°17' W 120°27'411.7
2018-Feb-23 03:30N 33°21' W 120°30'611.5
2018-Feb-23 03:00N 33°26' W 120°33'611.5
2018-Feb-23 02:29N 33°31' W 120°37'611.5
2018-Feb-23 02:00N 33°36' W 120°40'611.5
2018-Feb-23 01:30N 33°42' W 120°43'611.5
2018-Feb-23 01:00N 33°47' W 120°46'611.3
2018-Feb-23 00:30N 33°52' W 120°49'611.5
2018-Feb-23 00:00N 33°57' W 120°52'611.6
2018-Feb-22 23:30N 34°02' W 120°56'612.0
2018-Feb-22 23:00N 34°07' W 120°59'611.7
2018-Feb-22 22:30N 34°12' W 121°02'611.6
2018-Feb-22 22:00N 34°18' W 121°05'611.5
2018-Feb-22 21:29N 34°23' W 121°09'511.5
2018-Feb-22 21:00N 34°28' W 121°12'611.7
2018-Feb-22 20:30N 34°33' W 121°15'611.5
2018-Feb-22 20:00N 34°38' W 121°17'611.3
2018-Feb-22 19:30N 34°43' W 121°21'1111.1
2018-Feb-22 18:30N 34°53' W 121°27'611.3
2018-Feb-22 17:59N 34°58' W 121°30'611.4
2018-Feb-22 17:29N 35°03' W 121°33'12811.4
2018-Feb-22 06:12N 37°00' W 122°39'311.5
2018-Feb-22 05:57N 37°03' W 122°40'711.2
2018-Feb-22 05:19N 37°09' W 122°43'411.3
2018-Feb-22 05:00N 37°13' W 122°44'611.7
2018-Feb-22 04:30N 37°19' W 122°44'611.7
2018-Feb-22 03:59N 37°25' W 122°44'611.7
2018-Feb-22 03:30N 37°31' W 122°44'611.8
2018-Feb-22 03:00N 37°36' W 122°44'612.5
2018-Feb-22 02:30N 37°43' W 122°42'611.1
2018-Feb-22 02:00N 37°46' W 122°37'713.6
2018-Feb-22 01:30N 37°49' W 122°29'5 9.3
2018-Feb-22 01:00N 37°53' W 122°26'611.6
2018-Feb-22 00:30N 37°59' W 122°26'611.4
2018-Feb-22 00:00N 38°03' W 122°21'5 9.2
2018-Feb-21 23:30N 38°04' W 122°15'5 8.1
2018-Feb-21 22:53N 38°02' W 122°09'1 0.0
2018-Feb-20 21:49N 38°02' W 122°08'1 3.7
2018-Feb-20 21:27N 38°02' W 122°10'4 8.7
2018-Feb-20 20:59N 38°04' W 122°14'4 9.4
2018-Feb-20 20:30N 38°03' W 122°20'5 9.6
2018-Feb-20 20:00N 38°00' W 122°25'5 9.8
2018-Feb-20 19:30N 37°56' W 122°27'5 9.5
2018-Feb-20 19:01N 37°51' W 122°25'4 8.7
2018-Feb-20 18:30N 37°49' W 122°29'510.2
2018-Feb-20 18:01N 37°47' W 122°35'510.8
2018-Feb-20 17:30N 37°44' W 122°41'3 6.8
2018-Feb-20 17:00N 37°41' W 122°40'3 5.9
2018-Feb-20 16:31N 37°38' W 122°40'3 5.8
2018-Feb-20 16:01N 37°35' W 122°40'3 5.8
2018-Feb-20 15:31N 37°32' W 122°40'3 5.9
2018-Feb-20 15:00N 37°29' W 122°40'4 7.2
2018-Feb-20 14:31N 37°26' W 122°40'4 7.0
2018-Feb-20 14:00N 37°22' W 122°40'3 6.2
2018-Feb-20 13:30N 37°19' W 122°40'2 4.9
2018-Feb-20 13:01N 37°17' W 122°40'3 5.3
2018-Feb-20 12:31N 37°14' W 122°40'3 6.5
2018-Feb-20 12:00N 37°11' W 122°41'2 4.5
2018-Feb-20 11:30N 37°09' W 122°40'5 9.5
2018-Feb-20 10:58N 37°04' W 122°38'4 9.3
2018-Feb-20 10:30N 36°60' W 122°36'110 7.8
2018-Feb-19 20:27N 35°19' W 121°39'4 8.8
2018-Feb-19 20:00N 35°16' W 121°37'5 9.0
2018-Feb-19 19:28N 35°12' W 121°34'4 8.4
2018-Feb-19 19:01N 35°09' W 121°32'4 9.0
2018-Feb-19 18:31N 35°05' W 121°29'4 8.9
2018-Feb-19 18:01N 35°01' W 121°26'5 9.3
2018-Feb-19 17:31N 34°57' W 121°23'5 9.1
2018-Feb-19 17:00N 34°53' W 121°21'5 9.1
2018-Feb-19 16:30N 34°49' W 121°18'5 9.5
2018-Feb-19 16:01N 34°45' W 121°15'5 9.6
2018-Feb-19 15:31N 34°41' W 121°12'5 9.7
2018-Feb-19 15:01N 34°36' W 121°09'5 9.4
2018-Feb-19 14:30N 34°32' W 121°06'4 8.9
2018-Feb-19 14:00N 34°28' W 121°04'5 9.2
2018-Feb-19 13:30N 34°24' W 121°01'5 9.3
2018-Feb-19 13:00N 34°20' W 120°58'5 9.9
2018-Feb-19 12:30N 34°16' W 120°55'5 9.4
2018-Feb-19 12:01N 34°12' W 120°52'5 9.5
2018-Feb-19 11:30N 34°08' W 120°50'5 9.6
2018-Feb-19 11:01N 34°04' W 120°47'5 9.5
2018-Feb-19 10:30N 33°60' W 120°44'5 9.6
2018-Feb-19 10:01N 33°56' W 120°40'5 9.5
2018-Feb-19 09:30N 33°54' W 120°35'5 9.4
2018-Feb-19 09:00N 33°52' W 120°30'5 9.5
2018-Feb-19 08:30N 33°49' W 120°25'6 9.9
2018-Feb-19 07:54N 33°47' W 120°18'410.0
2018-Feb-19 07:28N 33°45' W 120°14'510.1
2018-Feb-19 07:00N 33°42' W 120°09'611.2
2018-Feb-19 06:30N 33°41' W 120°02'611.4
2018-Feb-19 06:01N 33°41' W 119°55'610.9
2018-Feb-19 05:30N 33°40' W 119°49'511.0
2018-Feb-19 05:00N 33°39' W 119°42'510.7
2018-Feb-19 04:30N 33°39' W 119°36'510.8
2018-Feb-19 04:00N 33°38' W 119°30'510.9
2018-Feb-19 03:31N 33°38' W 119°23'510.9
2018-Feb-19 03:01N 33°37' W 119°17'611.4
2018-Feb-19 02:30N 33°37' W 119°10'611.3
2018-Feb-19 02:00N 33°36' W 119°03'511.0
2018-Feb-19 01:31N 33°35' W 118°56'611.1
2018-Feb-19 00:59N 33°35' W 118°50'511.4
2018-Feb-19 00:31N 33°34' W 118°43'611.4
2018-Feb-18 23:59N 33°33' W 118°36'511.3
2018-Feb-18 23:31N 33°33' W 118°29'611.3
2018-Feb-18 22:59N 33°32' W 118°22'510.9
2018-Feb-18 22:30N 33°33' W 118°16'511.1
2018-Feb-18 22:01N 33°38' W 118°13'5 9.6
2018-Feb-18 21:30N 33°43' W 118°11'3 5.2
2018-Feb-18 21:01N 33°45' W 118°13'2 3.1
2018-Feb-18 20:31N 33°46' W 118°13'0 0.0
2018-Feb-18 20:01N 33°46' W 118°13'0 0.0
2018-Feb-18 16:54N 33°46' W 118°13'0 0.0
2018-Feb-18 16:30N 33°46' W 118°13'0 0.0
2018-Feb-18 15:57N 33°46' W 118°13'0 0.0
2018-Feb-18 15:27N 33°46' W 118°13'0 0.0
2018-Feb-18 14:57N 33°46' W 118°13'0 0.0
2018-Feb-18 01:51N 33°46' W 118°13'0 0.0
2018-Feb-18 01:24N 33°46' W 118°13'0 0.0
2018-Feb-18 01:00N 33°46' W 118°13'0 0.0
2018-Feb-18 00:30N 33°46' W 118°13'0 0.0
2018-Feb-18 00:00N 33°46' W 118°13'0 0.0
2018-Feb-17 23:30N 33°46' W 118°13'0 0.0
2018-Feb-17 22:57N 33°46' W 118°13'0 0.0
2018-Feb-17 22:30N 33°46' W 118°13'0 0.0
2018-Feb-17 21:51N 33°46' W 118°13'0 0.0
2018-Feb-17 21:27N 33°46' W 118°13'0 0.0
2018-Feb-17 21:00N 33°46' W 118°13'0 0.0
2018-Feb-17 20:06N 33°46' W 118°13'0 0.0
2018-Feb-17 20:00N 33°46' W 118°13'0 0.0
2018-Feb-17 19:30N 33°46' W 118°13'0 0.0
2018-Feb-17 19:00N 33°46' W 118°13'0 0.0
2018-Feb-17 18:27N 33°46' W 118°13'0 0.0
2018-Feb-17 17:57N 33°46' W 118°13'0 0.0
2018-Feb-17 17:30N 33°46' W 118°13'0 0.0
2018-Feb-17 17:00N 33°46' W 118°13'0 0.0
2018-Feb-17 16:30N 33°46' W 118°13'0 0.0
2018-Feb-17 15:57N 33°46' W 118°13'0 0.0
2018-Feb-17 15:30N 33°46' W 118°13'0 0.0
2018-Feb-17 14:39N 33°46' W 118°13'0 0.0
2018-Feb-17 05:00N 33°46' W 118°13'0 0.3
2018-Feb-17 04:30N 33°46' W 118°13'1 2.3
2018-Feb-17 04:00N 33°45' W 118°13'3 5.2
2018-Feb-17 03:30N 33°43' W 118°11'3 5.6
2018-Feb-17 02:59N 33°41' W 118°08'1 1.2
2018-Feb-17 02:30N 33°41' W 118°08'0 0.0
2018-Feb-17 02:00N 33°41' W 118°08'0 0.0
2018-Feb-17 01:30N 33°41' W 118°08'0 0.0
2018-Feb-17 01:00N 33°41' W 118°08'0 0.0
2018-Feb-17 00:30N 33°41' W 118°08'0 0.0
2018-Feb-16 23:57N 33°41' W 118°08'0 0.0
2018-Feb-16 23:12N 33°41' W 118°08'0 0.0
2018-Feb-16 21:30N 33°41' W 118°08'0 0.1
2018-Feb-16 21:00N 33°41' W 118°08'0 0.0
2018-Feb-16 20:30N 33°41' W 118°08'0 0.1
2018-Feb-16 19:54N 33°41' W 118°08'0 0.1
2018-Feb-16 19:24N 33°41' W 118°08'0 0.1
2018-Feb-16 18:51N 33°41' W 118°08'0 0.0
2018-Feb-16 18:24N 33°41' W 118°08'0 0.1
2018-Feb-16 18:00N 33°41' W 118°08'0 0.2
2018-Feb-16 17:30N 33°41' W 118°08'0 0.1
2018-Feb-16 16:57N 33°41' W 118°08'0 0.0
2018-Feb-16 16:24N 33°41' W 118°08'0 0.1
2018-Feb-16 16:00N 33°41' W 118°08'0 0.1
2018-Feb-16 15:27N 33°41' W 118°08'0 0.1
2018-Feb-16 14:57N 33°41' W 118°08'0 0.1
2018-Feb-16 13:36N 33°41' W 118°08'0 0.3
2018-Feb-16 13:14N 33°41' W 118°08'1 3.0
2018-Feb-16 12:51N 33°40' W 118°09'4 6.9
2018-Feb-16 12:16N 33°36' W 118°09'3 8.2
2018-Feb-16 11:57N 33°34' W 118°09'9 9.4
2018-Feb-16 10:57N 33°25' W 118°05'611.0
2018-Feb-16 10:27N 33°20' W 118°03'510.8
2018-Feb-16 10:00N 33°15' W 118°01'510.8
2018-Feb-16 09:30N 33°10' W 118°02'510.7
2018-Feb-16 09:00N 33°04' W 118°02'510.7
2018-Feb-16 08:30N 32°59' W 118°03'510.7
2018-Feb-16 08:00N 32°54' W 118°04'510.2
2018-Feb-16 07:30N 32°49' W 118°06'1010.4
2018-Feb-16 06:35N 32°41' W 118°12'710.6
2018-Feb-16 05:54N 32°37' W 118°19'410.8
2018-Feb-16 05:30N 32°35' W 118°24'610.7
2018-Feb-16 04:54N 32°30' W 118°29'610.6
2018-Feb-16 04:20N 32°25' W 118°33'310.3
2018-Feb-16 04:00N 32°22' W 118°35'510.1
2018-Feb-16 03:28N 32°18' W 118°38'102 2.4
2018-Feb-14 09:07N 33°09' W 120°23'112.7
2018-Feb-14 09:00N 33°10' W 120°24'612.7
2018-Feb-14 08:30N 33°16' W 120°27'612.6
2018-Feb-14 08:00N 33°21' W 120°31'612.5
2018-Feb-14 07:30N 33°27' W 120°34'612.3
2018-Feb-14 07:00N 33°32' W 120°38'612.3
2018-Feb-14 06:30N 33°38' W 120°41'612.4
2018-Feb-14 06:00N 33°43' W 120°44'612.6
2018-Feb-14 05:30N 33°49' W 120°47'612.8
2018-Feb-14 05:00N 33°55' W 120°51'612.8
2018-Feb-14 04:30N 34°00' W 120°54'612.5
2018-Feb-14 04:01N 34°06' W 120°58'612.5
2018-Feb-14 03:30N 34°12' W 121°01'612.3
2018-Feb-14 03:00N 34°17' W 121°05'612.0
2018-Feb-14 02:31N 34°22' W 121°08'612.4
2018-Feb-14 02:01N 34°28' W 121°11'612.3
2018-Feb-14 01:30N 34°33' W 121°15'612.2
2018-Feb-14 01:00N 34°39' W 121°18'612.1
2018-Feb-14 00:31N 34°44' W 121°21'912.1
2018-Feb-13 23:48N 34°52' W 121°26'412.0
2018-Feb-13 23:29N 34°55' W 121°28'612.0
2018-Feb-13 23:00N 35°00' W 121°32'1711.9
2018-Feb-13 21:35N 35°15' W 121°41'111.9
2018-Feb-13 21:30N 35°16' W 121°41'11411.6
2018-Feb-13 11:36N 37°01' W 122°39'111.5
2018-Feb-13 11:29N 37°02' W 122°40'611.6
2018-Feb-13 11:00N 37°07' W 122°42'611.6
2018-Feb-13 10:30N 37°13' W 122°44'611.9
2018-Feb-13 10:00N 37°19' W 122°44'611.7
2018-Feb-13 09:30N 37°25' W 122°44'611.9
2018-Feb-13 09:00N 37°31' W 122°44'611.5
2018-Feb-13 08:30N 37°36' W 122°44'611.5
2018-Feb-13 08:01N 37°42' W 122°44'5 9.1
2018-Feb-13 07:30N 37°46' W 122°41'611.6
2018-Feb-13 07:00N 37°47' W 122°34'612.2
2018-Feb-13 06:31N 37°50' W 122°27'4 7.9
2018-Feb-13 06:00N 37°54' W 122°27'510.7
2018-Feb-13 05:30N 37°60' W 122°25'510.0
2018-Feb-13 05:00N 38°03' W 122°20'  

Dump ship's entire track history